Time;durP1;ratioP1;P1;durP2;ratioP2;P2;SDS_P1;SDS_P2;PMS_P1;PMS_P2;Temp;Humidity;BMP_temperature;BMP_pressure;BME280_temperature;BME280_humidity;BME280_pressure;Samples;Min_cycle;Max_cycle;Signal;HPM_P1;HPM_P2
2022/03/27 00:00:28;;;;;;;44.98;25.20;;;;;;;6.98;65.81;101746.80;2024583;87;29336;-72
2022/03/27 00:03:31;;;;;;;30.12;17.12;;;;;;;6.98;65.82;101744.58;2024288;88;27659;-73
2022/03/27 00:06:33;;;;;;;23.60;13.48;;;;;;;6.94;64.52;101751.73;2024392;87;29720;-73
2022/03/27 00:09:35;;;;;;;23.40;10.98;;;;;;;6.86;62.62;101753.61;2024510;87;31039;-74
2022/03/27 00:12:38;;;;;;;19.57;9.05;;;;;;;6.79;60.77;101762.08;2024492;86;32949;-69
2022/03/27 00:15:39;;;;;;;18.35;8.33;;;;;;;6.75;60.03;101766.13;2024410;87;29522;-68
2022/03/27 00:18:41;;;;;;;13.53;6.40;;;;;;;6.69;58.83;101759.99;2024583;86;27717;-72
2022/03/27 00:21:44;;;;;;;8.20;5.05;;;;;;;6.63;54.94;101765.36;2040650;86;28652;-71
2022/03/27 00:24:46;;;;;;;5.12;2.75;;;;;;;6.56;53.82;101768.97;2057989;86;31223;-73
2022/03/27 00:27:48;;;;;;;10.53;3.87;;;;;;;6.47;54.39;101767.73;2033968;87;32967;-70
2022/03/27 00:30:49;;;;;;;5.85;2.75;;;;;;;6.40;53.05;101770.90;2036450;87;29394;-70
2022/03/27 00:33:51;;;;;;;6.40;2.40;;;;;;;6.29;51.84;101773.64;1991955;88;27750;-71
2022/03/27 00:36:53;;;;;;;7.08;2.55;;;;;;;6.21;50.45;101782.12;2051847;86;28642;-72
2022/03/27 00:39:54;;;;;;;4.37;2.58;;;;;;;6.11;49.81;101776.02;2052278;86;31025;-71
2022/03/27 00:42:56;;;;;;;7.97;3.05;;;;;;;6.03;50.46;101782.72;2052905;86;33138;-71
2022/03/27 00:45:58;;;;;;;8.20;3.00;;;;;;;5.96;50.29;101783.60;2053015;86;29356;-73
2022/03/27 00:49:00;;;;;;;8.45;2.87;;;;;;;5.90;49.76;101792.94;2053164;86;27708;-71
2022/03/27 00:52:03;;;;;;;10.25;4.12;;;;;;;5.83;47.62;101790.77;2073941;85;29507;-72
2022/03/27 00:55:05;;;;;;;13.38;6.00;;;;;;;5.78;49.33;101793.45;2053396;85;31035;-69
2022/03/27 00:58:08;;;;;;;15.32;6.78;;;;;;;5.72;49.19;101795.27;2052950;86;32975;-71
2022/03/27 01:01:25;;;;;;;10.10;5.20;;;;;;;5.66;48.16;101793.95;2053064;86;28788;-74
2022/03/27 01:04:27;;;;;;;10.63;4.20;;;;;;;5.61;48.65;101793.56;2052969;86;27668;-69
2022/03/27 01:07:28;;;;;;;9.50;4.15;;;;;;;5.55;48.18;101789.59;2053153;86;29312;-70
2022/03/27 01:10:30;;;;;;;8.88;4.10;;;;;;;5.47;48.48;101794.94;2052689;86;31076;-74
2022/03/27 01:13:34;;;;;;;12.75;4.37;;;;;;;5.41;48.58;101792.76;2053087;86;33897;-69
2022/03/27 01:16:49;;;;;;;10.78;4.50;;;;;;;5.33;48.57;101791.00;2053100;86;29997;-72
2022/03/27 01:19:54;;;;;;;9.60;4.03;;;;;;;5.26;48.61;101797.24;2052127;86;27809;-68
2022/03/27 01:22:55;;;;;;;10.38;4.17;;;;;;;5.19;48.24;101795.94;2052640;85;28656;-73
2022/03/27 01:25:57;;;;;;;9.08;4.22;;;;;;;5.08;48.60;101803.94;2051871;86;31939;-74
2022/03/27 01:28:59;;;;;;;10.45;4.30;;;;;;;4.99;48.31;101805.70;2059220;85;32966;-73
2022/03/27 01:32:04;;;;;;;14.87;4.65;;;;;;;4.91;48.34;101803.95;2052998;86;30173;-72
2022/03/27 01:35:10;;;;;;;13.78;5.80;;;;;;;4.81;48.14;101804.41;2052924;86;27692;-71
2022/03/27 01:38:11;;;;;;;13.28;4.87;;;;;;;4.70;48.12;101804.45;2053118;86;28717;-73
2022/03/27 01:41:13;;;;;;;13.55;5.95;;;;;;;4.63;48.22;101812.86;2052706;86;31190;-72
2022/03/27 01:44:17;;;;;;;9.75;4.90;;;;;;;4.56;48.43;101814.60;2053110;86;32951;-73
2022/03/27 01:47:19;;;;;;;18.27;7.37;;;;;;;4.49;48.52;101815.50;2052644;86;30016;-72
2022/03/27 01:50:21;;;;;;;12.95;6.25;;;;;;;4.41;48.45;101812.84;2053725;85;27681;-69
2022/03/27 01:53:23;;;;;;;12.18;5.72;;;;;;;4.34;48.61;101814.17;2072976;85;28636;-72
2022/03/27 01:56:27;;;;;;;12.28;6.05;;;;;;;4.26;48.57;101812.84;2054331;86;31935;-70
2022/03/27 01:59:29;;;;;;;12.80;6.92;;;;;;;4.16;48.87;101801.75;2069998;86;36822;-71
2022/03/27 02:02:30;;;;;;;12.98;5.20;;;;;;;4.07;48.83;101806.18;2055043;85;29375;-71
2022/03/27 02:05:32;;;;;;;14.50;5.45;;;;;;;3.98;49.01;101806.59;2051847;86;27749;-71
2022/03/27 02:08:34;;;;;;;16.12;5.45;;;;;;;3.92;49.05;101814.11;2053012;86;29374;-71
2022/03/27 02:11:36;;;;;;;14.45;5.53;;;;;;;3.83;49.13;101810.98;2052878;86;31064;-70
2022/03/27 02:14:39;;;;;;;16.55;4.90;;;;;;;3.77;49.21;101807.88;2053003;86;32984;-72
2022/03/27 02:17:41;;;;;;;9.50;4.08;;;;;;;3.71;49.31;101811.83;2052859;86;30119;-70
2022/03/27 02:20:44;;;;;;;9.58;4.37;;;;;;;3.65;49.35;101807.39;2054549;85;27673;-68
2022/03/27 02:23:46;;;;;;;11.40;4.95;;;;;;;3.60;49.37;101816.21;2052916;86;28668;-71
2022/03/27 02:26:50;;;;;;;8.83;3.80;;;;;;;3.53;49.50;101813.08;2052952;86;31127;-69
2022/03/27 02:29:51;;;;;;;15.90;4.85;;;;;;;3.48;49.54;101821.89;2052715;86;33076;-71
2022/03/27 02:32:53;;;;;;;8.45;4.00;;;;;;;3.43;49.43;101818.35;2057015;81;29389;-69
2022/03/27 02:35:55;;;;;;;9.13;4.58;;;;;;;3.38;49.55;101810.81;2056295;86;27716;-71
2022/03/27 02:38:57;;;;;;;11.85;4.67;;;;;;;3.35;49.59;101814.77;2055795;85;28692;-71
2022/03/27 02:41:59;;;;;;;10.48;4.65;;;;;;;3.30;49.56;101814.75;2051849;86;31164;-71
2022/03/27 02:45:02;;;;;;;10.50;3.85;;;;;;;3.25;49.72;101819.13;2052534;86;32791;-70
2022/03/27 02:48:04;;;;;;;12.55;3.92;;;;;;;3.21;49.61;101816.04;2056583;85;29373;-69
2022/03/27 02:51:06;;;;;;;11.00;3.85;;;;;;;3.16;49.61;101820.41;2019295;85;27752;-71
2022/03/27 02:54:08;;;;;;;12.47;4.08;;;;;;;3.12;49.69;101819.94;2020755;86;28649;-72
2022/03/27 02:57:10;;;;;;;13.25;4.90;;;;;;;3.10;49.79;101830.95;2033315;86;31074;-71
2022/03/27 03:00:13;;;;;;;11.03;4.35;;;;;;;3.04;49.69;101830.06;2055301;86;33775;-71
2022/03/27 03:03:15;;;;;;;18.12;6.75;;;;;;;3.01;49.82;101831.78;2013868;88;29322;-70
2022/03/27 03:06:17;;;;;;;17.40;7.80;;;;;;;2.96;49.85;101831.77;2044806;86;27708;-71
2022/03/27 03:09:19;;;;;;;13.43;6.00;;;;;;;2.90;49.91;101835.67;2055182;85;29500;-72
2022/03/27 03:12:21;;;;;;;10.85;5.17;;;;;;;2.84;49.92;101840.50;2055882;86;31067;-71
2022/03/27 03:15:23;;;;;;;17.48;5.08;;;;;;;2.80;50.05;101844.02;2013126;88;32379;-72
2022/03/27 03:18:26;;;;;;;15.40;5.92;;;;;;;2.75;50.14;101839.12;2017522;88;29337;-71
2022/03/27 03:21:27;;;;;;;14.73;5.80;;;;;;;2.70;50.17;101836.86;2037469;85;27676;-71
2022/03/27 03:24:30;;;;;;;16.57;5.08;;;;;;;2.67;50.20;101836.83;2019089;86;29486;-70
2022/03/27 03:27:32;;;;;;;17.48;4.90;;;;;;;2.64;50.26;101835.52;2056229;86;31951;-68
2022/03/27 03:30:34;;;;;;;12.13;4.95;;;;;;;2.63;50.39;101844.32;2022011;86;33662;-70
2022/03/27 03:33:36;;;;;;;10.75;5.08;;;;;;;2.58;50.34;101840.28;2044477;85;28936;-70
2022/03/27 03:36:37;;;;;;;14.43;5.62;;;;;;;2.52;50.45;101841.13;2074623;85;28290;-70
2022/03/27 03:39:39;;;;;;;13.68;5.08;;;;;;;2.46;50.50;101841.52;2074151;85;29279;-71
2022/03/27 03:42:41;;;;;;;17.17;5.50;;;;;;;2.38;50.70;101841.44;2074361;85;31000;-72
2022/03/27 03:45:43;;;;;;;17.85;5.33;;;;;;;2.31;50.71;101847.56;2074518;85;33744;-74
2022/03/27 03:48:45;;;;;;;13.28;5.65;;;;;;;2.24;50.83;101842.62;2074256;85;30171;-71
2022/03/27 03:51:47;;;;;;;11.43;5.20;;;;;;;2.18;50.86;101846.09;2074618;85;27727;-71
2022/03/27 03:54:48;;;;;;;14.47;5.37;;;;;;;2.11;51.07;101843.83;2074275;85;28716;-72
2022/03/27 03:57:50;;;;;;;13.62;5.45;;;;;;;2.04;51.15;101843.33;2074534;85;31869;-71
2022/03/27 04:00:52;;;;;;;14.38;5.60;;;;;;;1.96;51.36;101859.11;2074505;85;33891;-70
2022/03/27 04:03:54;;;;;;;11.78;4.58;;;;;;;1.88;51.42;101859.44;2074656;85;29375;-67
2022/03/27 04:06:56;;;;;;;21.40;5.35;;;;;;;1.81;51.65;101865.53;2074539;84;27605;-70
2022/03/27 04:09:57;;;;;;;12.10;5.72;;;;;;;1.72;51.76;101862.34;2073307;85;28644;-70
2022/03/27 04:12:59;;;;;;;17.90;5.90;;;;;;;1.61;51.96;101864.84;2072943;85;31845;-70
2022/03/27 04:16:01;;;;;;;11.25;5.20;;;;;;;1.53;52.01;101879.69;2038830;87;33763;-70
2022/03/27 04:19:03;;;;;;;13.72;5.37;;;;;;;1.43;52.12;101877.80;2073553;85;29334;-69
2022/03/27 04:22:05;;;;;;;13.78;5.15;;;;;;;1.30;52.34;101873.69;2048053;85;27693;-69
2022/03/27 04:25:09;;;;;;;13.10;5.60;;;;;;;1.19;52.35;101881.44;2004164;87;28646;-69
2022/03/27 04:28:10;;;;;;;11.45;5.03;;;;;;;1.11;52.36;101883.51;2043356;87;31059;-69
2022/03/27 04:31:15;;;;;;;15.28;4.62;;;;;;;1.01;52.54;101885.98;2009838;88;32947;-69
2022/03/27 04:34:17;;;;;;;13.53;5.05;;;;;;;0.96;52.81;101894.70;2006844;88;30206;-70
2022/03/27 04:37:19;;;;;;;20.43;4.95;;;;;;;0.88;52.93;101888.89;2006595;88;27810;-71
2022/03/27 04:40:21;;;;;;;12.47;4.58;;;;;;;0.83;53.02;101898.47;2028691;87;29872;-70
2022/03/27 04:43:22;;;;;;;13.43;4.30;;;;;;;0.75;53.19;101900.98;2008227;88;31181;-72
2022/03/27 04:46:24;;;;;;;13.05;4.65;;;;;;;0.70;53.17;101900.00;2008294;88;33145;-71
2022/03/27 04:49:26;;;;;;;10.15;4.60;;;;;;;0.66;53.41;101907.84;2034030;86;29376;-71
2022/03/27 04:52:28;;;;;;;12.55;4.47;;;;;;;0.63;53.63;101907.78;2066718;85;27690;-71
2022/03/27 04:55:29;;;;;;;13.60;4.70;;;;;;;0.60;53.73;101912.58;2077653;85;29480;-70
2022/03/27 04:58:32;;;;;;;11.97;4.15;;;;;;;0.58;53.91;101906.39;2077373;85;31647;-70
2022/03/27 05:01:33;;;;;;;9.98;4.25;;;;;;;0.56;54.13;101914.70;2059250;85;32956;-70
2022/03/27 05:04:37;;;;;;;12.33;4.95;;;;;;;0.56;54.22;101914.70;2038861;85;29476;-72
2022/03/27 05:07:40;;;;;;;17.95;6.28;;;;;;;0.55;54.34;101920.83;2038984;87;28365;-73
2022/03/27 05:10:42;;;;;;;14.40;5.08;;;;;;;0.57;54.55;101924.39;2040304;86;28655;-74
2022/03/27 05:13:44;;;;;;;13.00;5.35;;;;;;;0.59;54.72;101930.58;2040759;87;31082;-72
2022/03/27 05:16:45;;;;;;;15.85;5.92;;;;;;;0.61;54.81;101927.55;2040923;86;32957;-74
2022/03/27 05:19:47;;;;;;;17.40;6.35;;;;;;;0.64;54.86;101933.30;2040890;87;29315;-73
2022/03/27 05:22:49;;;;;;;19.92;7.53;;;;;;;0.69;55.08;101940.88;2064877;86;27663;-75
2022/03/27 05:25:52;;;;;;;18.20;6.80;;;;;;;0.75;55.27;101943.59;2051928;86;28654;-73
2022/03/27 05:28:54;;;;;;;19.80;7.53;;;;;;;0.82;55.51;101942.86;2031652;87;31103;-71
2022/03/27 05:44:11;;;;;;;29.12;12.63;;;;;;;1.26;56.10;101951.05;2074901;84;27804;-73
2022/03/27 05:47:14;;;;;;;30.68;13.18;;;;;;;1.39;56.22;101955.20;2067822;86;33017;-74
2022/03/27 05:50:18;;;;;;;28.35;14.45;;;;;;;1.52;56.17;101967.71;2066055;86;29375;-73
2022/03/27 05:53:20;;;;;;;24.67;9.05;;;;;;;1.66;56.29;101970.56;2044292;87;27732;-70
2022/03/27 05:56:22;;;;;;;14.75;5.28;;;;;;;1.81;56.16;101968.14;2040956;87;28647;-72
2022/03/27 05:59:24;;;;;;;16.37;6.15;;;;;;;1.98;55.56;101960.87;2041742;87;31020;-71
2022/03/27 06:02:26;;;;;;;11.28;5.40;;;;;;;2.19;55.57;101960.23;2043514;87;33568;-72
2022/03/27 06:05:27;;;;;;;12.15;4.37;;;;;;;2.40;55.30;101955.63;2043225;87;29332;-72
2022/03/27 06:08:29;;;;;;;14.50;4.75;;;;;;;2.67;55.26;101960.77;2043569;87;27614;-72
2022/03/27 06:11:31;;;;;;;13.15;5.95;;;;;;;2.96;54.81;101963.25;2043411;87;29793;-72
2022/03/27 06:14:33;;;;;;;17.77;6.15;;;;;;;3.23;54.42;101953.75;2043980;87;31828;-75
2022/03/27 06:17:41;;;;;;;16.07;6.62;;;;;;;3.62;54.31;101962.86;2106555;83;32980;-72
2022/03/27 06:20:43;;;;;;;12.07;5.95;;;;;;;4.08;54.07;101955.14;2064656;86;29377;-72
2022/03/27 06:23:45;;;;;;;17.73;8.15;;;;;;;4.68;53.73;101950.89;2029692;87;27743;-72
2022/03/27 06:26:47;;;;;;;13.20;6.03;;;;;;;5.23;53.10;101952.68;2066875;86;28626;-69
2022/03/27 06:29:48;;;;;;;17.30;5.87;;;;;;;5.78;52.75;101950.81;2066693;86;31065;-74
2022/03/27 06:32:53;;;;;;;19.62;6.70;;;;;;;6.31;52.18;101943.53;2067684;86;32943;-73
2022/03/27 06:35:55;;;;;;;;;;;;;;;6.87;51.28;101940.95;2070793;86;29348;-69
2022/03/27 06:38:57;;;;;;;11.97;5.03;;;;;;;7.38;50.73;101940.06;2067520;86;27729;-73
2022/03/27 06:41:58;;;;;;;10.53;5.50;;;;;;;7.86;50.04;101948.00;2090578;85;28651;-73
2022/03/27 06:45:00;;;;;;;9.68;3.80;;;;;;;8.24;48.98;101949.32;2088984;84;31005;-74
2022/03/27 06:48:02;;;;;;;9.33;3.58;;;;;;;8.68;48.44;101943.39;2071296;85;33798;-74
2022/03/27 06:51:04;;;;;;;7.58;4.08;;;;;;;9.25;47.47;101947.38;2072171;84;30152;-72
2022/03/27 06:54:06;;;;;;;8.15;3.08;;;;;;;9.76;46.79;101949.56;2070174;85;27671;-74
2022/03/27 06:57:08;;;;;;;7.37;3.72;;;;;;;10.18;46.38;101948.25;2042362;86;28648;-73
2022/03/27 07:03:33;;;;;;;8.68;4.03;;;;;;;10.87;44.46;101944.92;2056165;86;33025;-74
2022/03/27 07:06:34;;;;;;;6.53;3.75;;;;;;;11.17;43.61;101954.94;2055722;86;28720;-73
2022/03/27 07:09:36;;;;;;;9.25;3.65;;;;;;;11.33;42.35;101954.09;2056775;85;27816;-71
2022/03/27 07:12:39;;;;;;;7.15;3.67;;;;;;;11.69;42.73;101958.92;2055908;86;28760;-74
2022/03/27 07:15:43;;;;;;;8.23;3.50;;;;;;;11.99;40.83;101957.67;2057245;86;31033;-76
2022/03/27 07:18:49;;;;;;;9.25;3.70;;;;;;;12.38;40.95;101958.34;2057280;85;32945;-74
2022/03/27 07:21:48;;;;;;;8.03;4.05;;;;;;;12.82;40.81;101964.61;2056056;86;29401;-76
2022/03/27 07:24:51;;;;;;;12.50;3.92;;;;;;;13.27;40.76;101955.03;2056951;86;27787;-75
2022/03/27 07:27:53;;;;;;;8.78;3.67;;;;;;;13.56;39.54;101958.58;2056078;85;28766;-74
2022/03/27 07:30:55;;;;;;;6.12;3.37;;;;;;;13.92;39.18;101963.09;2057119;86;31050;-72
2022/03/27 07:33:57;;;;;;;7.75;3.37;;;;;;;14.30;38.72;101962.56;2056790;86;32943;-72
2022/03/27 07:36:59;;;;;;;10.55;4.50;;;;;;;14.62;38.66;101960.42;2055386;86;29322;-71
2022/03/27 07:40:03;;;;;;;10.25;4.25;;;;;;;14.83;38.25;101957.34;2038038;87;27745;-73
2022/03/27 07:43:06;;;;;;;11.35;3.80;;;;;;;15.10;38.16;101949.06;2069595;86;28665;-71
2022/03/27 07:46:08;;;;;;;5.17;3.42;;;;;;;15.37;37.48;101943.91;2051628;86;31047;-72
2022/03/27 07:49:10;;;;;;;5.47;2.83;;;;;;;15.64;36.53;101937.73;2047433;86;33166;-74
2022/03/27 07:52:12;;;;;;;7.90;3.22;;;;;;;15.97;36.40;101944.42;2055165;86;29359;-71
2022/03/27 07:55:15;;;;;;;7.35;2.42;;;;;;;16.10;36.38;101928.92;2056192;86;27771;-71
2022/03/27 07:58:17;;;;;;;3.95;2.58;;;;;;;16.41;35.21;101938.74;2022343;87;28741;-70
2022/03/27 08:01:19;;;;;;;6.50;2.87;;;;;;;16.46;34.91;101934.00;2037181;87;31074;-73
2022/03/27 08:04:21;;;;;;;8.30;3.70;;;;;;;16.37;34.39;101936.66;2061395;86;33929;-68
2022/03/27 08:07:23;;;;;;;6.33;3.30;;;;;;;16.61;34.34;101937.80;2058155;85;29321;-69
2022/03/27 08:10:25;;;;;;;5.28;3.15;;;;;;;16.70;33.27;101944.59;2053063;85;27671;-70
2022/03/27 08:13:27;;;;;;;7.28;3.85;;;;;;;16.80;32.88;101940.92;2042834;85;28820;-72
2022/03/27 08:16:29;;;;;;;6.03;3.25;;;;;;;16.98;33.02;101935.98;2057574;85;31070;-70
2022/03/27 08:19:30;;;;;;;6.22;3.15;;;;;;;17.14;32.15;101933.38;2047472;85;33166;-70
2022/03/27 08:22:33;;;;;;;7.62;3.30;;;;;;;17.19;31.81;101934.98;2045118;86;28778;-68
2022/03/27 08:28:56;;;;;;;5.50;2.90;;;;;;;17.31;31.16;101929.78;2020015;87;29582;-72
2022/03/27 08:32:03;;;;;;;5.10;2.52;;;;;;;17.30;30.16;101927.17;2029797;87;32011;-71
2022/03/27 08:35:06;;;;;;;5.05;2.65;;;;;;;17.38;30.79;101937.61;2027329;87;34183;-71
2022/03/27 08:38:17;;;;;;;6.60;3.80;;;;;;;17.31;28.90;101937.05;2019087;87;30172;-71
2022/03/27 08:41:21;;;;;;;5.15;2.40;;;;;;;16.95;30.01;101943.39;2033816;87;28258;-68
2022/03/27 08:44:26;;;;;;;4.72;1.98;;;;;;;16.63;28.08;101943.98;2029734;87;29575;-71
2022/03/27 08:47:28;;;;;;;4.47;2.10;;;;;;;16.05;28.68;101953.94;2053424;85;31747;-70
2022/03/27 08:50:35;;;;;;;6.90;2.83;;;;;;;15.77;29.34;101947.06;2066724;85;33997;-70
2022/03/27 08:54:07;;;;;;;7.72;2.62;;;;;;;15.54;28.89;101951.25;2038025;85;29579;-68
2022/03/27 08:57:39;;;;;;;3.92;2.30;;;;;;;15.09;29.11;101924.81;2004287;86;27767;-66
2022/03/27 09:00:41;;;;;;;5.67;2.40;;;;;;;15.09;29.11;101924.81;2026613;85;28759;-66
2022/03/27 09:03:44;;;;;;;4.15;2.27;;;;;;;14.87;28.74;101949.55;2042985;87;31038;-66
2022/03/27 09:06:46;;;;;;;4.12;2.50;;;;;;;14.76;28.66;101945.52;2042056;87;33876;-65
2022/03/27 09:09:47;;;;;;;4.92;2.55;;;;;;;14.65;29.02;101945.92;2036104;87;29326;-65
2022/03/27 09:12:51;;;;;;;6.80;3.35;;;;;;;14.55;28.68;101942.26;2018188;87;27759;-66
2022/03/27 09:16:03;;;;;;;4.22;2.65;;;;;;;14.30;28.52;101940.13;2018009;87;28695;-66
2022/03/27 09:19:06;;;;;;;8.58;2.95;;;;;;;14.19;28.22;101938.72;2043908;87;31045;-65
2022/03/27 09:22:23;;;;;;;6.42;3.20;;;;;;;14.05;28.16;101938.37;2099650;84;32476;-76
2022/03/27 09:25:25;;;;;;;4.62;2.20;;;;;;;13.95;29.03;101936.03;2101187;84;29399;-67
2022/03/27 09:28:34;;;;;;;6.75;2.47;;;;;;;13.93;28.76;101932.52;2043646;85;27781;-66
2022/03/27 09:31:36;;;;;;;7.20;3.33;;;;;;;13.91;28.37;101920.91;2040646;87;29459;-66
2022/03/27 09:35:02;;;;;;;3.83;1.80;;;;;;;13.80;28.56;101908.32;2040786;87;31634;-68
2022/03/27 09:38:19;;;;;;;10.93;2.72;;;;;;;13.75;28.08;101913.86;2061440;84;33146;-68
2022/03/27 09:41:54;;;;;;;3.33;1.60;;;;;;;13.71;27.76;101908.64;2073440;85;29329;-67
2022/03/27 09:45:17;;;;;;;4.78;2.05;;;;;;;13.63;28.22;101903.09;2075687;84;27611;-68
2022/03/27 09:48:19;;;;;;;5.50;2.22;;;;;;;13.60;28.34;101902.30;2096906;84;29217;-68
2022/03/27 09:51:22;;;;;;;3.72;1.90;;;;;;;13.56;28.71;101909.62;2055110;86;31717;-68
2022/03/27 09:54:25;;;;;;;5.47;1.95;;;;;;;13.38;27.87;101908.45;2089120;84;33163;-68
2022/03/27 09:57:31;;;;;;;3.87;2.27;;;;;;;13.34;27.89;101902.75;2100411;84;29340;-68
2022/03/27 10:00:33;;;;;;;8.95;2.83;;;;;;;13.31;28.40;101901.52;2093994;84;28085;-68
2022/03/27 10:03:39;;;;;;;5.10;2.72;;;;;;;13.37;28.75;101903.52;2075660;84;28655;-68
2022/03/27 10:06:42;;;;;;;5.72;2.70;;;;;;;13.44;28.79;101893.92;2076197;84;31687;-72
2022/03/27 10:09:44;;;;;;;5.37;2.80;;;;;;;13.50;28.93;101889.64;2098868;84;32963;-70
2022/03/27 10:12:49;;;;;;;5.75;2.33;;;;;;;13.54;28.90;101885.05;2098962;83;29436;-68
2022/03/27 10:15:53;;;;;;;;;;;;;;;13.51;29.04;101877.94;2102906;84;27701;-70
2022/03/27 10:19:02;;;;;;;3.67;1.75;;;;;;;13.54;28.89;101884.56;2093687;85;28657;-67
2022/03/27 10:22:05;;;;;;;3.62;2.25;;;;;;;13.57;29.09;101881.77;2070972;84;31857;-65
2022/03/27 10:25:09;;;;;;;6.22;3.42;;;;;;;13.62;29.70;101879.79;2069703;84;33964;-66
2022/03/27 10:28:15;;;;;;;4.47;2.60;;;;;;;13.68;29.97;101871.46;2065558;86;30212;-66
2022/03/27 10:31:16;;;;;;;6.07;2.57;;;;;;;13.70;29.18;101874.11;2065769;86;27656;-67
2022/03/27 10:34:20;;;;;;;3.70;2.00;;;;;;;13.63;29.17;101860.00;2065687;86;28615;-66
2022/03/27 10:37:36;;;;;;;6.58;2.00;;;;;;;13.59;29.41;101857.45;2065749;86;31680;-66
2022/03/27 10:41:05;;;;;;;5.80;2.10;;;;;;;13.53;29.73;101853.19;2065508;85;33753;-66
2022/03/27 10:44:22;;;;;;;9.75;2.47;;;;;;;13.48;29.90;101836.34;2065807;86;29927;-67
2022/03/27 10:47:25;;;;;;;5.60;2.90;;;;;;;13.49;29.48;101833.58;2033492;86;28193;-66
2022/03/27 10:50:27;;;;;;;6.95;3.08;;;;;;;13.43;30.04;101827.06;2022428;88;28685;-67
2022/03/27 10:53:29;;;;;;;4.83;2.37;;;;;;;13.45;30.11;101825.20;2030098;86;31823;-67
2022/03/27 10:56:40;;;;;;;5.05;2.72;;;;;;;13.40;30.00;101828.55;2017986;88;32985;-66
2022/03/27 10:59:43;;;;;;;4.70;1.90;;;;;;;13.42;30.68;101823.09;2017204;88;29568;-68
2022/03/27 11:02:52;;;;;;;5.90;2.05;;;;;;;13.44;30.30;101822.09;2019291;86;27785;-67
2022/03/27 11:06:01;;;;;;;6.50;2.22;;;;;;;13.38;30.00;101817.79;2030012;87;28650;-67
2022/03/27 11:09:09;;;;;;;3.87;2.05;;;;;;;13.34;29.99;101822.86;2016671;87;31064;-70
2022/03/27 11:12:29;;;;;;;7.40;2.10;;;;;;;13.32;30.30;101814.45;2029324;87;32969;-70
2022/03/27 11:15:36;;;;;;;7.95;3.85;;;;;;;13.26;30.04;101810.63;1995812;89;29588;-70
2022/03/27 11:18:43;;;;;;;6.22;3.62;;;;;;;13.13;29.70;101808.39;2007133;87;27765;-68
2022/03/27 11:21:45;;;;;;;4.15;2.33;;;;;;;13.03;30.40;101809.19;2029555;86;28651;-66
2022/03/27 11:24:54;;;;;;;2.83;1.80;;;;;;;13.06;30.68;101798.80;2028800;87;28010;-66
2022/03/27 11:28:11;;;;;;;7.58;2.60;;;;;;;13.05;30.68;101792.52;2014068;87;32988;-68
2022/03/27 11:31:16;;;;;;;4.90;1.90;;;;;;;13.06;30.68;101792.07;2018293;87;29341;-70
2022/03/27 11:34:18;;;;;;;;;;;;;;;13.11;30.90;101781.14;2005144;87;27788;-71
2022/03/27 11:37:23;;;;;;;8.10;2.08;;;;;;;13.13;30.54;101779.27;2007774;88;29730;-70
2022/03/27 11:40:40;;;;;;;6.40;2.10;;;;;;;13.07;30.70;101772.30;1976347;89;31000;-67
2022/03/27 11:43:42;;;;;;;4.03;2.40;;;;;;;13.06;30.36;101765.17;1976398;90;33860;-65
2022/03/27 11:46:57;;;;;;;3.25;2.22;;;;;;;13.02;30.83;101775.63;1984250;88;29324;-65
2022/03/27 11:49:59;;;;;;;6.93;2.87;;;;;;;13.05;30.58;101771.48;1996332;89;27737;-66
2022/03/27 11:53:03;;;;;;;7.35;2.17;;;;;;;13.07;30.84;101766.92;1996344;89;29384;-67
2022/03/27 11:56:11;;;;;;;4.72;2.60;;;;;;;13.12;30.67;101763.58;1995804;89;31182;-67
2022/03/27 11:59:14;;;;;;;6.80;2.00;;;;;;;13.13;30.81;101753.23;1964062;90;33803;-69
2022/03/27 12:02:18;;;;;;;8.83;2.20;;;;;;;13.12;30.45;101749.27;1986541;89;29532;-66
2022/03/27 12:05:20;;;;;;;5.37;2.47;;;;;;;13.09;30.28;101749.37;1995528;89;27707;-67
2022/03/27 12:08:40;;;;;;;6.33;2.42;;;;;;;13.00;30.39;101743.86;1996231;89;28732;-69
2022/03/27 12:11:44;;;;;;;9.98;2.20;;;;;;;12.94;30.30;101748.10;1995827;89;32177;-66
2022/03/27 12:15:09;;;;;;;3.58;2.20;;;;;;;12.86;29.85;101738.97;1996275;89;32999;-65
2022/03/27 12:18:08;;;;;;;8.45;2.35;;;;;;;12.79;30.28;101734.28;1995714;87;30011;-67
2022/03/27 12:21:12;;;;;;;3.85;2.20;;;;;;;12.73;29.91;101728.66;1977086;90;27622;-69
2022/03/27 12:24:16;;;;;;;5.83;2.70;;;;;;;12.68;30.19;101727.08;1975692;90;29524;-68
2022/03/27 12:30:47;;;;;;;5.80;2.22;;;;;;;12.71;30.35;101716.21;1995162;89;33005;-65
2022/03/27 12:33:50;;;;;;;6.60;2.22;;;;;;;12.79;30.62;101714.11;1976703;90;29335;-67
2022/03/27 12:37:14;;;;;;;5.55;2.10;;;;;;;12.82;30.29;101703.73;2014807;86;27750;-67
2022/03/27 12:40:16;;;;;;;3.42;1.95;;;;;;;12.86;30.11;101699.52;2064899;86;29058;-69
2022/03/27 12:43:18;;;;;;;8.60;3.45;;;;;;;12.87;29.83;101702.62;2064479;86;32333;-65
2022/03/27 12:46:22;;;;;;;3.75;2.70;;;;;;;12.85;30.34;101695.07;2066302;84;33020;-67
2022/03/27 12:49:24;;;;;;;6.40;2.42;;;;;;;12.87;30.06;101693.66;2094587;84;29354;-67
2022/03/27 12:52:26;;;;;;;4.20;2.33;;;;;;;12.86;30.40;101687.41;2094656;85;27735;-66
2022/03/27 12:55:46;;;;;;;6.90;2.72;;;;;;;12.90;30.15;101683.69;2094592;84;28098;-68
2022/03/27 12:58:48;;;;;;;4.15;2.25;;;;;;;12.92;30.07;101676.41;2060644;84;31996;-68
2022/03/27 13:01:50;;;;;;;7.22;2.42;;;;;;;12.94;30.43;101668.75;2081058;84;33005;-69
2022/03/27 13:05:01;;;;;;;4.35;2.10;;;;;;;12.98;29.86;101667.70;2100462;84;29335;-69
2022/03/27 13:08:03;;;;;;;5.53;2.17;;;;;;;12.95;30.01;101659.30;2100033;84;27693;-66
2022/03/27 13:11:12;;;;;;;6.47;2.27;;;;;;;12.94;29.91;101664.72;2100111;84;28707;-69
2022/03/27 13:14:14;;;;;;;5.67;2.58;;;;;;;12.95;30.03;101656.61;2069286;84;31038;-68
2022/03/27 13:17:16;;;;;;;8.55;3.45;;;;;;;12.99;29.90;101654.19;2056098;86;32963;-68
2022/03/27 13:20:30;;;;;;;4.97;2.60;;;;;;;12.96;29.57;101650.30;2058477;84;29551;-68
2022/03/27 13:23:32;;;;;;;7.47;2.47;;;;;;;12.97;29.56;101648.02;2065232;86;27793;-68
2022/03/27 13:26:36;;;;;;;6.62;3.20;;;;;;;13.02;29.76;101643.31;2093381;84;28664;-66
2022/03/27 13:29:38;;;;;;;3.55;2.45;;;;;;;13.06;29.69;101634.69;2094442;84;31871;-68
2022/03/27 13:32:40;;;;;;;5.85;3.05;;;;;;;13.07;29.54;101637.78;2095794;84;32512;-68
2022/03/27 13:35:46;;;;;;;5.65;2.20;;;;;;;13.10;29.66;101636.78;2065011;86;29307;-71
2022/03/27 13:38:45;;;;;;;5.85;2.40;;;;;;;13.09;29.09;101627.81;2089557;83;27692;-69
2022/03/27 13:45:09;;;;;;;4.65;2.08;;;;;;;13.03;29.13;101621.34;2072293;84;31534;-69
2022/03/27 13:48:11;;;;;;;4.70;2.62;;;;;;;13.01;28.93;101619.17;2065055;84;33821;-69
2022/03/27 13:51:13;;;;;;;4.37;2.20;;;;;;;13.01;28.84;101621.87;2099608;84;29806;-69
2022/03/27 13:54:16;;;;;;;4.92;2.05;;;;;;;13.00;28.65;101613.38;2068817;84;28027;-66
2022/03/27 13:57:18;;;;;;;6.40;2.27;;;;;;;13.00;28.55;101616.94;2073032;84;29988;-67
2022/03/27 14:00:20;;;;;;;3.60;1.98;;;;;;;13.01;28.87;101609.28;2087481;84;31645;-67
2022/03/27 14:03:24;;;;;;;6.33;2.08;;;;;;;13.01;28.84;101607.94;2100120;84;34221;-68
2022/03/27 14:06:26;;;;;;;4.60;1.85;;;;;;;13.02;28.91;101599.41;2092582;85;29818;-66
2022/03/27 14:09:28;;;;;;;4.85;2.62;;;;;;;13.00;29.04;101589.17;2093240;85;27703;-66
2022/03/27 14:12:31;;;;;;;5.90;2.37;;;;;;;13.06;29.01;101590.30;2099356;84;28649;-66
2022/03/27 14:15:34;;;;;;;4.05;1.98;;;;;;;13.07;28.83;101588.02;2100497;84;31863;-65
2022/03/27 14:18:38;;;;;;;4.85;2.27;;;;;;;13.06;29.06;101583.08;2100394;83;33018;-69
2022/03/27 14:21:40;;;;;;;4.30;2.20;;;;;;;13.04;29.17;101574.67;2063232;84;29363;-70
2022/03/27 14:24:42;;;;;;;4.65;2.10;;;;;;;13.03;28.98;101569.75;2100409;84;27680;-67
2022/03/27 14:27:46;;;;;;;7.85;1.90;;;;;;;13.03;28.79;101570.23;2100437;84;29885;-68
2022/03/27 14:30:48;;;;;;;3.92;2.40;;;;;;;13.05;28.96;101564.33;2109375;84;31061;-67
2022/03/27 14:33:50;;;;;;;5.90;2.40;;;;;;;13.05;28.87;101563.84;2115000;84;34141;-68
2022/03/27 14:36:52;;;;;;;4.95;2.47;;;;;;;13.05;28.62;101557.59;2115894;83;30265;-67
2022/03/27 14:39:55;;;;;;;5.55;2.35;;;;;;;13.03;28.82;101556.78;2109682;84;27717;-67
2022/03/27 14:42:57;;;;;;;4.67;3.25;;;;;;;13.04;28.92;101559.39;2102971;84;28664;-68